• Join FlightAware (Why Join?)
  • Login
  • US Flag 
06:52AM EST


 

Airport Tracker/Info


-or-


 

Live Flight TrackerFlight Track Log ✈ EJA982 ✈ 30-Apr-2013 ✈ KBOI - KMDW

Flight Track Log - Related Links

Times and Time Zones

All times are in EDT time to prevent confusion due to time zone crossing. See the EJA982 flight status page for this flight to view local times or setup timezone preferences in your user account.

Time Position Orientation Groundspeed Altitude Reporting Facility
EDT Latitude Longitude Course Direction KTS MPH feet Rate Location/Type
04:06PM 43.5850 -116.2989 105° East 192 221 6,300  Level Salt Lake Center
04:07PM 43.5486 -116.3650 233° Southwest 287 330 8,700 2,293 Climbing Salt Lake Center
04:08PM 43.5033 -116.2833 127° Southeast 318 366 11,000 2,244 Climbing Salt Lake Center
04:09PM 43.5064 -116.1361 88° East 363 418 13,300 2,557 Climbing Salt Lake Center
04:10PM 43.5100 -115.9783 88° East 392 451 16,200 2,557 Climbing Salt Lake Center
04:11PM 43.3517 -115.1418 105° East  Level FlightAware Approximate
04:11PM 43.4942 -115.8294 98° East 420 483 18,500  Level Salt Lake Center
04:12PM 43.4606 -115.6719 106° East 431 496 20,800 2,049 Climbing Salt Lake Center
04:13PM 43.4325 -115.5128 104° East 448 516 22,700 1,918 Climbing Salt Lake Center
04:14PM 43.3969 -115.3206 104° East 468 539 24,700 1,756 Climbing Salt Lake Center
04:15PM 43.3661 -115.1492 104° East 481 554 26,300 1,659 Climbing Salt Lake Center
04:16PM 43.3272 -114.9389 104° East 507 583 28,100 1,475 Climbing Salt Lake Center
04:17PM 43.3197 -114.7489 93° East 524 603 29,300 1,220 Climbing Salt Lake Center
04:18PM 43.3239 -114.5525 88° East 539 620 30,600 1,463 Climbing Salt Lake Center
04:19PM 43.3303 -114.3208 88° East 544 626 32,300 1,672 Climbing Salt Lake Center
04:20PM 43.3333 -114.1200 89° East 552 635 34,000 1,918 Climbing Salt Lake Center
04:21PM 43.3386 -113.8911 88° East 537 618 36,200 1,805 Climbing Salt Lake Center
04:22PM 43.3406 -113.6853 89° East 532 612 37,700 1,171 Climbing Salt Lake Center
04:23PM 43.3439 -113.4914 89° East 532 612 38,600 689 Climbing Salt Lake Center
04:24PM 43.3450 -113.2969 89° East 534 615 39,100 1,024 Climbing Salt Lake Center
04:25PM 43.3483 -113.0683 89° East 537 618 40,700 927 Climbing Salt Lake Center
04:26PM 43.3500 -112.8781 89° East 525 604 41,000 148 Climbing Salt Lake Center
04:27PM 43.3519 -112.6497 89° East 535 616 41,000  Level Salt Lake Center
04:28PM 43.3525 -112.4497 90° East 546 628 41,000  Level Salt Lake Center
04:29PM 43.3539 -112.2444 89° East 560 644 41,000  Level Salt Lake Center
04:30PM 43.3542 -112.0031 90° East 567 652 41,000  Level Salt Lake Center
04:31PM 43.3533 -111.7978 90° East 565 650 41,000  Level Salt Lake Center
04:32PM 43.3536 -111.5583 90° East 564 649 41,000  Level Salt Lake Center
04:33PM 43.3522 -111.3558 90° East 560 644 41,000  Level Salt Lake Center
04:34PM 43.3519 -111.1128 90° East 566 651 41,000  Level Salt Lake Center
04:35PM 43.3497 -110.9083 91° East 563 648 41,000  Level Salt Lake Center
04:36PM 43.3475 -110.7036 91° East 563 648 41,000  Level Salt Lake Center
04:37PM 43.3447 -110.4619 91° East 563 648 41,000  Level Salt Lake Center
04:38PM 43.3417 -110.2572 91° East 562 647 41,000  Level Salt Lake Center
04:39PM 43.3386 -110.0164 91° East 564 649 41,000  Level Salt Lake Center
04:40PM 43.3344 -109.8119 92° East 562 647 41,000  Level Salt Lake Center
04:41PM 43.3303 -109.6053 92° East 564 649 41,000  Level Salt Lake Center
04:42PM 43.3247 -109.3617 92° East 572 658 41,000  Level Salt Lake Center
04:43PM 43.3197 -109.1544 92° East 570 656 41,000  Level Salt Lake Center
04:44PM 43.3131 -108.9131 92° East 568 654 41,000  Level Salt Lake Center
04:45PM 43.3075 -108.7053 92° East 571 657 41,000  Level Salt Lake Center
04:46PM 43.3022 -108.5000 92° East 565 650 41,000  Level Salt Lake Center
04:47PM 43.2939 -108.2606 93° East 564 649 41,000  Level Salt Lake Center
04:48PM 43.2872 -108.0547 92° East 566 651 41,000  Level Salt Lake Center
04:49PM 43.2789 -107.8164 93° East 563 648 41,000  Level Salt Lake Center
04:51PM 43.2711 -107.6094 93° East 567 652 41,000  Level Salt Lake Center
04:52PM 43.2622 -107.4022 93° East 569 655 41,000  Level Salt Lake Center
04:53PM 43.2528 -107.1586 93° East 575 662 41,000  Level Salt Lake Center
04:54PM 43.2439 -106.9231 93° East 575 662 41,000  Level Salt Lake Center
04:55PM 43.2356 -106.7144 93° East 573 659 41,000  Level Salt Lake Center
04:55PM 43.2317 -106.6447 94° East 570 656 41,000  Level Denver Center
04:56PM 43.2200 -106.4025 94° East 573 659 41,000  Level Denver Center
04:57PM 43.2092 -106.1947 94° East 572 658 41,000  Level Denver Center
04:58PM 43.1969 -105.9503 94° East 574 661 41,000  Level Denver Center
04:59PM 43.1881 -105.7758 94° East 575 662 41,000  Level Denver Center
05:00PM 43.1733 -105.4969 94° East 574 661 41,000  Level Denver Center
05:01PM 43.1603 -105.2875 95° East 575 662 41,000  Level Denver Center
05:02PM 43.1486 -105.0783 94° East 574 661 41,000  Level Denver Center
05:03PM 43.1339 -104.8342 95° East 574 661 41,000  Level Denver Center
05:04PM 43.1203 -104.6244 95° East 574 661 41,000  Level Denver Center
05:05PM 43.1047 -104.3789 95° East 575 662 41,000  Level Denver Center
05:06PM 43.0897 -104.1675 95° East 578 665 41,000  Level Denver Center
05:07PM 43.0750 -103.9542 95° East 584 672 41,000  Level Denver Center
05:08PM 43.0575 -103.7094 96° East 579 666 41,000  Level Denver Center
05:09PM 43.0417 -103.5011 96° East 576 663 41,000  Level Denver Center
05:10PM 43.0233 -103.2586 96° East 575 662 41,000  Level Denver Center
05:11PM 43.0069 -103.0528 96° East 571 657 41,000  Level Denver Center
05:12PM 42.9881 -102.8114 96° East 573 659 41,000  Level Denver Center
05:14PM 42.9711 -102.6064 96° East 569 655 41,000  Level Denver Center
05:15PM 42.9556 -102.4028 96° East 565 650 41,000  Level Denver Center
05:16PM 42.9344 -102.1636 97° East 568 654 41,000  Level Denver Center
05:17PM 42.9161 -101.9589 97° East 570 656 41,000  Level Denver Center
05:18PM 42.8958 -101.7189 96° East 566 651 41,000  Level Denver Center
05:19PM 42.8769 -101.5139 97° East 568 654 41,000  Level Denver Center
05:20PM 42.8553 -101.2869 97° East 570 656 41,000  Level Denver Center
05:21PM 42.8353 -101.0736 97° East 570 656 41,000  Level Denver Center
05:22PM 42.8153 -100.8617 97° East 569 655 41,000  Level Denver Center
05:23PM 42.7939 -100.6489 98° East 568 654 41,000  Level Denver Center
05:24PM 42.7728 -100.4383 98° East 565 650 41,000  Level Denver Center
05:25PM 42.7419 -100.1369 98° East 572 658 41,000  Level Denver Center
05:26PM 42.7147 -99.8797 98° East 575 662 41,000  Level Denver Center
05:27PM 42.6922 -99.6681 98° East 571 657 41,000  Level Denver Center
05:28PM 42.6803 -99.5594 98° East 569 655 41,000  Level Minneapolis Center
05:29PM 42.6567 -99.3450 98° East 571 657 41,000  Level Minneapolis Center
05:30PM 42.6283 -99.0875 98° East 573 659 41,000  Level Minneapolis Center
05:31PM 42.6092 -98.9147 99° East 575 662 41,000  Level Minneapolis Center
05:32PM 42.5783 -98.6586 99° East 573 659 41,000  Level Minneapolis Center
05:33PM 42.5533 -98.4458 99° East 572 658 41,000  Level Minneapolis Center
05:34PM 42.5225 -98.1897 99° East 572 658 41,000  Level Minneapolis Center
05:35PM 42.4964 -97.9803 100° East 565 650 41,000  Level Minneapolis Center
05:36PM 42.4744 -97.7983 99° East 556 640 41,000  Level Minneapolis Center
05:37PM 42.4531 -97.6339 100° East 555 639 41,000  Level Minneapolis Center
05:39PM 42.4172 -97.3475 100° East 551 634 41,000  Level Minneapolis Center
05:40PM 42.3856 -97.1044 100° East 548 631 41,000  Level Minneapolis Center
05:41PM 42.3583 -96.9011 100° East 548 631 41,000  Level Minneapolis Center
05:42PM 42.3306 -96.6994 100° East 547 629 41,000  Level Minneapolis Center
05:43PM 42.3033 -96.4983 100° East 546 628 41,000  Level Minneapolis Center
05:44PM 42.2750 -96.2969 101° East 543 625 41,000  Level Minneapolis Center
05:45PM 42.2472 -96.0961 101° East 542 624 41,000  Level Minneapolis Center
05:46PM 42.2189 -95.8967 101° East 540 621 41,000  Level Minneapolis Center
05:47PM 42.1850 -95.6589 101° East 537 618 41,000  Level Minneapolis Center
05:48PM 42.1547 -95.4581 101° East 540 621 41,000  Level Minneapolis Center
05:49PM 42.1269 -95.2644 101° East 529 609 41,000  Level Minneapolis Center
05:50PM 42.0972 -95.0675 101° East 531 611 41,000  Level Minneapolis Center
05:51PM 42.0661 -94.8703 102° East 537 618 41,000  Level Minneapolis Center
05:52PM 42.0353 -94.6744 102° East 534 615 41,000  Level Minneapolis Center
05:53PM 42.0050 -94.4789 102° East 533 613 41,000  Level Minneapolis Center
05:54PM 41.9731 -94.2828 102° East 536 617 41,000  Level Minneapolis Center
05:55PM 41.9364 -94.0469 102° East 537 618 41,000  Level Minneapolis Center
05:56PM 41.9011 -93.8269 102° East 534 615 41,000  Level Minneapolis Center
05:57PM 41.8761 -93.6719 102° East 534 615 41,000  Level Minneapolis Center
05:58PM 41.8383 -93.4400 102° East 535 616 41,000  Level Minneapolis Center
05:59PM 41.8058 -93.2483 103° East 534 615 41,000 -864 Level Minneapolis Center
06:00PM 41.7692 -93.0175 102° East 532 612 39,200 -1,632 Descending Minneapolis Center
06:01PM 41.7381 -92.8283 102° East 528 608 37,600 -1,512 Descending Minneapolis Center
06:02PM 41.7044 -92.6197 102° East 529 609 36,100 -1,426 Descending Minneapolis Center
06:03PM 41.6853 -92.5019 102° East 535 616 35,200 -1,118 Descending Chicago Center
06:04PM 41.6531 -92.3097 103° East 536 617 34,200 -1,008 Descending Chicago Center
06:05PM 41.6200 -92.1175 103° East 538 619 33,100 -1,392 Descending Chicago Center
06:06PM 41.5817 -91.8911 103° East 531 611 31,300 -1,597 Descending Chicago Center
06:07PM 41.5478 -91.6981 103° East 536 617 29,800 -1,161 Descending Chicago Center
06:08PM 41.5144 -91.5083 103° East 534 615 28,900 -968 Descending Chicago Center
06:09PM 41.4819 -91.3206 103° East 510 587 27,800 -1,113 Descending Chicago Center
06:10PM 41.4489 -91.1394 104° East 504 580 26,600 -1,306 Descending Chicago Center
06:11PM 41.4167 -90.9581 103° East 503 579 25,100 -1,645 Descending Chicago Center
06:12PM 41.3783 -90.7447 103° East 495 570 23,200 -1,887 Descending Chicago Center
06:13PM 41.3461 -90.5753 104° East 474 545 21,200 -2,129 Descending Chicago Center
06:14PM 41.3158 -90.4100 104° East 461 531 18,800 -2,226 Descending Chicago Center
06:16PM 41.2853 -90.2492 104° East 451 519 16,600 -1,872 Descending Chicago Center
06:17PM 41.2556 -90.0892 104° East 446 513 14,900 -816 Descending Chicago Center
06:18PM 41.2272 -89.9350 104° East 435 501 14,900 48 Level Chicago Center
06:19PM 41.1989 -89.7869 104° East 420 483 15,000 48 Climbing Chicago Center
06:20PM 41.1639 -89.6050 104° East 420 483 15,000 -48 Level Chicago Center
06:21PM 41.1714 -89.4458 86° East 431 496 14,900 -726 Descending Chicago Center
06:22PM 41.2139 -89.3031 68° East 418 481 13,500 -1,790 Descending Chicago Center
06:23PM 41.2558 -89.1792 66° East 384 442 11,200 -1,887 Descending Chicago Center
06:24PM 41.2961 -89.0569 66° East 366 421 9,600 -1,597 Descending Chicago Center
06:25PM 41.3400 -88.9319 65° Northeast 315 362 7,900 -1,306 Descending Chicago Center
06:26PM 41.3744 -88.8308 66° East 303 349 6,900 -823 Descending Chicago Center
06:27PM 41.4078 -88.7319 66° East 297 342 6,200 -432 Descending Chicago Center
06:28PM 41.4389 -88.6347 67° East 289 333 6,000 -96 Descending Chicago Center
06:29PM 41.4608 -88.5281 75° East 296 341 6,000  Level Chicago Center
06:30PM 41.4881 -88.4025 74° East 295 339 6,000  Level Chicago Center
06:31PM 41.5097 -88.3006 74° East 287 330 6,000  Level Chicago Center
06:32PM 41.5322 -88.1975 74° East 287 330 6,000 -387 Level Chicago Center
06:33PM 41.5550 -88.0953 73° East 285 328 5,200 -484 Descending Chicago Center
06:34PM 41.5778 -87.9897 74° East 291 335 5,000 -97 Descending Chicago Center
06:35PM 41.5981 -87.8900 75° East 284 327 5,000  Level Chicago Center
06:36PM 41.6094 -87.7900 81° East 274 315 5,000 -145 Level Chicago Center
06:37PM 41.6181 -87.6856 84° East 259 298 4,700 -912 Descending Chicago Center
06:38PM 41.6667 -87.6333 39° Northeast 236 272 3,100 -1,065 Descending Chicago TRACON
06:39PM 41.7347 -87.6222 North 238 274 2,500 -333 Descending Chicago Center
06:40PM 41.8000 -87.6333 353° North 181 208 2,400 -350 Descending Chicago TRACON
06:41PM 41.8167 -87.6833 294° West 162 186 1,800 -632 Descending Chicago TRACON
06:42PM 41.8167 -87.7167 270° West 120 138 1,200 -600 Descending Chicago TRACON